CheckWX is a tool to help pilots better visualize weather data.  It is not intended as a substitute for an official pre-flight weather briefing.

20:32:00 UTC

HEAR TAF
El Arish International Airport
El Arish, Egypt
TAF HEAR 221700Z 2218/2324 VRB03KT CAVOK BECMG 2306/2308 35009KT 9999 SCT020 BECMG 2316/2318 VRB03KT

Mar-22@
18:00 UTC

Mar-22 @ 18:00 UTC

Mar-23@
06:00 UTC

Mar-23 @ 06:00 UTC

TAF HEAR 221700Z 2218/2324 VRB03KT CAVOK
Wind
  • Variable at 3 KTS
Conditions
No significant weather
Cloud Levels
  • No significant clouds

Mar-23@
06:00 UTC

Mar-23 @ 06:00 UTC

Mar-23@
16:00 UTC

Mar-23 @ 16:00 UTC

BECMG 2306/2308 35009KT 9999 SCT020

Becoming

Becoming Conditions expected by Sat, Mar 23, 2019 @ 08:00 UTC

Wind
  • 350° at 9 KTS
Conditions
No significant weather
Cloud Levels
  • Scattered at 2,000' AGL

Mar-23@
16:00 UTC

Mar-23 @ 16:00 UTC

Mar-24@
00:00 UTC

Mar-24 @ 00:00 UTC

BECMG 2316/2318 VRB03KT

Becoming

Becoming Conditions expected by Sat, Mar 23, 2019 @ 18:00 UTC

Wind
  • Variable at 3 KTS
Conditions
No significant weather
Cloud Levels
  • Scattered at 2,000' AGL